sensor_id;sensor_type;location;lat;lon;timestamp;pressure;altitude;pressure_sealevel;temperature;humidity
54407;BME280;40313;50.308;30.374;2023-02-22T00:00:09;98676.44;;;-0.87;100.00
54407;BME280;40313;50.308;30.374;2023-02-22T00:02:43;98681.59;;;-0.88;100.00
54407;BME280;40313;50.308;30.374;2023-02-22T00:05:11;98686.72;;;-0.88;100.00
54407;BME280;40313;50.308;30.374;2023-02-22T00:07:41;98689.22;;;-0.87;100.00
54407;BME280;40313;50.308;30.374;2023-02-22T00:10:08;98702.19;;;-0.93;100.00
54407;BME280;40313;50.308;30.374;2023-02-22T00:12:37;98709.28;;;-1.04;100.00
54407;BME280;40313;50.308;30.374;2023-02-22T00:15:03;98712.06;;;-1.13;100.00
54407;BME280;40313;50.308;30.374;2023-02-22T00:17:31;98708.72;;;-1.15;100.00
54407;BME280;40313;50.308;30.374;2023-02-22T00:19:58;98711.38;;;-1.22;100.00
54407;BME280;40313;50.308;30.374;2023-02-22T00:22:25;98727.09;;;-1.35;100.00
54407;BME280;40313;50.308;30.374;2023-02-22T00:24:52;98730.47;;;-1.35;100.00
54407;BME280;40313;50.308;30.374;2023-02-22T00:27:19;98743.34;;;-1.38;100.00
54407;BME280;40313;50.308;30.374;2023-02-22T00:29:47;98743.38;;;-1.40;100.00
54407;BME280;40313;50.308;30.374;2023-02-22T00:32:13;98746.00;;;-1.43;100.00
54407;BME280;40313;50.308;30.374;2023-02-22T00:34:40;98744.31;;;-1.44;100.00
54407;BME280;40313;50.308;30.374;2023-02-22T00:37:08;98749.44;;;-1.44;100.00
54407;BME280;40313;50.308;30.374;2023-02-22T00:39:36;98753.75;;;-1.47;100.00
54407;BME280;40313;50.308;30.374;2023-02-22T00:42:02;98758.06;;;-1.49;100.00
54407;BME280;40313;50.308;30.374;2023-02-22T00:44:29;98754.69;;;-1.50;100.00
54407;BME280;40313;50.308;30.374;2023-02-22T00:46:57;98756.53;;;-1.57;100.00
54407;BME280;40313;50.308;30.374;2023-02-22T00:49:23;98760.84;;;-1.59;100.00
54407;BME280;40313;50.308;30.374;2023-02-22T00:51:50;98761.69;;;-1.58;100.00
54407;BME280;40313;50.308;30.374;2023-02-22T00:54:16;98771.84;;;-1.55;100.00
54407;BME280;40313;50.308;30.374;2023-02-22T00:56:45;98776.13;;;-1.55;100.00
54407;BME280;40313;50.308;30.374;2023-02-22T00:59:12;98784.59;;;-1.53;100.00
54407;BME280;40313;50.308;30.374;2023-02-22T01:01:38;98790.53;;;-1.53;100.00
54407;BME280;40313;50.308;30.374;2023-02-22T01:04:05;98788.81;;;-1.51;100.00
54407;BME280;40313;50.308;30.374;2023-02-22T01:06:31;98791.41;;;-1.52;100.00
54407;BME280;40313;50.308;30.374;2023-02-22T01:08:58;98784.63;;;-1.55;100.00
54407;BME280;40313;50.308;30.374;2023-02-22T01:11:26;98793.19;;;-1.58;100.00
54407;BME280;40313;50.308;30.374;2023-02-22T01:13:54;98791.53;;;-1.59;100.00
54407;BME280;40313;50.308;30.374;2023-02-22T01:16:22;98806.88;;;-1.59;100.00
54407;BME280;40313;50.308;30.374;2023-02-22T01:18:48;98800.94;;;-1.61;100.00
54407;BME280;40313;50.308;30.374;2023-02-22T01:21:15;98814.59;;;-1.62;100.00
54407;BME280;40313;50.308;30.374;2023-02-22T01:23:43;98815.41;;;-1.60;100.00
54407;BME280;40313;50.308;30.374;2023-02-22T01:26:10;98811.09;;;-1.58;100.00
54407;BME280;40313;50.308;30.374;2023-02-22T01:28:37;98820.53;;;-1.60;100.00
54407;BME280;40313;50.308;30.374;2023-02-22T01:31:05;98824.78;;;-1.59;100.00
54407;BME280;40313;50.308;30.374;2023-02-22T01:33:31;98823.88;;;-1.58;100.00
54407;BME280;40313;50.308;30.374;2023-02-22T01:35:59;98827.34;;;-1.59;100.00
54407;BME280;40313;50.308;30.374;2023-02-22T01:38:25;98829.06;;;-1.61;100.00
54407;BME280;40313;50.308;30.374;2023-02-22T01:40:52;98832.47;;;-1.59;100.00
54407;BME280;40313;50.308;30.374;2023-02-22T01:43:21;98841.84;;;-1.61;100.00
54407;BME280;40313;50.308;30.374;2023-02-22T01:45:53;98846.09;;;-1.60;100.00
54407;BME280;40313;50.308;30.374;2023-02-22T01:48:25;98848.69;;;-1.61;100.00
54407;BME280;40313;50.308;30.374;2023-02-22T01:50:54;98853.81;;;-1.61;100.00
54407;BME280;40313;50.308;30.374;2023-02-22T01:53:22;98858.06;;;-1.62;100.00
54407;BME280;40313;50.308;30.374;2023-02-22T01:55:49;98862.34;;;-1.62;100.00
54407;BME280;40313;50.308;30.374;2023-02-22T01:58:15;98865.78;;;-1.63;100.00
54407;BME280;40313;50.308;30.374;2023-02-22T02:00:43;98864.94;;;-1.64;100.00
54407;BME280;40313;50.308;30.374;2023-02-22T02:03:10;98866.66;;;-1.64;100.00
54407;BME280;40313;50.308;30.374;2023-02-22T02:05:40;98870.06;;;-1.64;100.00
54407;BME280;40313;50.308;30.374;2023-02-22T02:08:09;98876.94;;;-1.67;100.00
54407;BME280;40313;50.308;30.374;2023-02-22T02:10:38;98882.06;;;-1.69;100.00
54407;BME280;40313;50.308;30.374;2023-02-22T02:13:06;98891.50;;;-1.71;100.00
54407;BME280;40313;50.308;30.374;2023-02-22T02:15:34;98899.16;;;-1.71;100.00
54407;BME280;40313;50.308;30.374;2023-02-22T02:18:02;98901.72;;;-1.71;100.00
54407;BME280;40313;50.308;30.374;2023-02-22T02:20:31;98900.13;;;-1.77;100.00
54407;BME280;40313;50.308;30.374;2023-02-22T02:23:02;98907.81;;;-1.78;100.00
54407;BME280;40313;50.308;30.374;2023-02-22T02:28:42;98909.50;;;-1.76;100.00
54407;BME280;40313;50.308;30.374;2023-02-22T02:34:13;98923.25;;;-1.83;100.00
54407;BME280;40313;50.308;30.374;2023-02-22T02:36:43;98923.16;;;-1.78;100.00
54407;BME280;40313;50.308;30.374;2023-02-22T02:39:14;98928.41;;;-1.87;100.00
54407;BME280;40313;50.308;30.374;2023-02-22T02:41:48;98934.44;;;-1.88;100.00
54407;BME280;40313;50.308;30.374;2023-02-22T02:44:20;98941.25;;;-1.91;100.00
54407;BME280;40313;50.308;30.374;2023-02-22T02:46:51;98954.09;;;-1.94;100.00
54407;BME280;40313;50.308;30.374;2023-02-22T02:49:26;98950.72;;;-1.97;100.00
54407;BME280;40313;50.308;30.374;2023-02-22T02:51:56;98959.25;;;-1.95;100.00
54407;BME280;40313;50.308;30.374;2023-02-22T02:54:23;98956.75;;;-2.00;100.00
54407;BME280;40313;50.308;30.374;2023-02-22T02:56:50;98971.31;;;-2.05;100.00
54407;BME280;40313;50.308;30.374;2023-02-22T02:59:25;98964.47;;;-2.04;100.00
54407;BME280;40313;50.308;30.374;2023-02-22T03:01:59;98967.91;;;-2.04;100.00
54407;BME280;40313;50.308;30.374;2023-02-22T03:04:36;98963.69;;;-2.08;100.00
54407;BME280;40313;50.308;30.374;2023-02-22T03:07:21;98970.50;;;-2.07;100.00
54407;BME280;40313;50.308;30.374;2023-02-22T03:09:56;98978.13;;;-2.04;100.00
54407;BME280;40313;50.308;30.374;2023-02-22T03:12:32;98988.44;;;-2.09;100.00
54407;BME280;40313;50.308;30.374;2023-02-22T03:15:11;98986.69;;;-2.08;100.00
54407;BME280;40313;50.308;30.374;2023-02-22T03:17:45;98990.97;;;-2.07;100.00
54407;BME280;40313;50.308;30.374;2023-02-22T03:20:21;98999.53;;;-2.11;100.00
54407;BME280;40313;50.308;30.374;2023-02-22T03:22:59;99001.25;;;-2.13;100.00
54407;BME280;40313;50.308;30.374;2023-02-22T03:25:32;99004.72;;;-2.16;100.00
54407;BME280;40313;50.308;30.374;2023-02-22T03:28:03;99009.81;;;-2.14;100.00
54407;BME280;40313;50.308;30.374;2023-02-22T03:30:35;99014.09;;;-2.18;100.00
54407;BME280;40313;50.308;30.374;2023-02-22T03:33:06;99015.00;;;-2.22;100.00
54407;BME280;40313;50.308;30.374;2023-02-22T03:35:37;99019.25;;;-2.21;100.00
54407;BME280;40313;50.308;30.374;2023-02-22T03:38:10;99013.31;;;-2.21;100.00
54407;BME280;40313;50.308;30.374;2023-02-22T03:40:41;99026.03;;;-2.18;100.00
54407;BME280;40313;50.308;30.374;2023-02-22T03:43:12;99040.59;;;-2.23;100.00
54407;BME280;40313;50.308;30.374;2023-02-22T03:45:42;99032.94;;;-2.25;100.00
54407;BME280;40313;50.308;30.374;2023-02-22T03:48:15;99041.41;;;-2.23;100.00
54407;BME280;40313;50.308;30.374;2023-02-22T03:50:46;99048.25;;;-2.23;100.00
54407;BME280;40313;50.308;30.374;2023-02-22T03:53:14;99051.72;;;-2.28;100.00
54407;BME280;40313;50.308;30.374;2023-02-22T03:55:43;99058.50;;;-2.27;100.00
54407;BME280;40313;50.308;30.374;2023-02-22T03:58:10;99047.44;;;-2.26;100.00
54407;BME280;40313;50.308;30.374;2023-02-22T04:00:39;99061.03;;;-2.25;100.00
54407;BME280;40313;50.308;30.374;2023-02-22T04:03:08;99051.66;;;-2.24;100.00
54407;BME280;40313;50.308;30.374;2023-02-22T04:05:35;99055.09;;;-2.26;100.00
54407;BME280;40313;50.308;30.374;2023-02-22T04:08:03;99066.16;;;-2.25;100.00
54407;BME280;40313;50.308;30.374;2023-02-22T04:10:30;99061.06;;;-2.27;100.00
54407;BME280;40313;50.308;30.374;2023-02-22T04:12:57;99065.31;;;-2.26;100.00
54407;BME280;40313;50.308;30.374;2023-02-22T04:15:24;99067.00;;;-2.26;100.00
54407;BME280;40313;50.308;30.374;2023-02-22T04:17:50;99069.63;;;-2.31;100.00
54407;BME280;40313;50.308;30.374;2023-02-22T04:20:18;99072.16;;;-2.29;100.00
54407;BME280;40313;50.308;30.374;2023-02-22T04:22:45;99073.88;;;-2.30;100.00
54407;BME280;40313;50.308;30.374;2023-02-22T04:25:13;99084.91;;;-2.28;100.00
54407;BME280;40313;50.308;30.374;2023-02-22T04:27:40;99082.44;;;-2.34;100.00
54407;BME280;40313;50.308;30.374;2023-02-22T04:30:07;99083.28;;;-2.33;100.00
54407;BME280;40313;50.308;30.374;2023-02-22T04:32:34;99090.13;;;-2.35;100.00
54407;BME280;40313;50.308;30.374;2023-02-22T04:35:01;99096.03;;;-2.32;100.00
54407;BME280;40313;50.308;30.374;2023-02-22T04:37:28;99094.31;;;-2.30;100.00
54407;BME280;40313;50.308;30.374;2023-02-22T04:39:54;99102.94;;;-2.37;100.00
54407;BME280;40313;50.308;30.374;2023-02-22T04:42:22;99108.03;;;-2.37;100.00
54407;BME280;40313;50.308;30.374;2023-02-22T04:44:48;99108.91;;;-2.38;100.00
54407;BME280;40313;50.308;30.374;2023-02-22T04:47:15;99120.06;;;-2.45;100.00
54407;BME280;40313;50.308;30.374;2023-02-22T04:49:42;99124.34;;;-2.49;100.00
54407;BME280;40313;50.308;30.374;2023-02-22T04:52:09;99134.59;;;-2.52;100.00
54407;BME280;40313;50.308;30.374;2023-02-22T04:54:36;99144.06;;;-2.58;100.00
54407;BME280;40313;50.308;30.374;2023-02-22T04:57:02;99142.38;;;-2.63;100.00
54407;BME280;40313;50.308;30.374;2023-02-22T04:59:30;99144.13;;;-2.68;100.00
54407;BME280;40313;50.308;30.374;2023-02-22T05:01:57;99164.69;;;-2.79;100.00
54407;BME280;40313;50.308;30.374;2023-02-22T05:04:25;99159.63;;;-2.85;100.00
54407;BME280;40313;50.308;30.374;2023-02-22T05:06:51;99171.56;;;-2.87;100.00
54407;BME280;40313;50.308;30.374;2023-02-22T05:09:18;99180.16;;;-2.96;100.00
54407;BME280;40313;50.308;30.374;2023-02-22T05:11:45;99187.81;;;-2.96;100.00
54407;BME280;40313;50.308;30.374;2023-02-22T05:14:11;99187.88;;;-3.06;100.00
54407;BME280;40313;50.308;30.374;2023-02-22T05:16:39;99199.81;;;-3.08;100.00
54407;BME280;40313;50.308;30.374;2023-02-22T05:19:06;99198.13;;;-3.11;100.00
54407;BME280;40313;50.308;30.374;2023-02-22T05:21:32;99213.47;;;-3.13;100.00
54407;BME280;40313;50.308;30.374;2023-02-22T05:23:59;99217.69;;;-3.13;100.00
54407;BME280;40313;50.308;30.374;2023-02-22T05:26:25;99221.19;;;-3.23;100.00
54407;BME280;40313;50.308;30.374;2023-02-22T05:28:52;99230.56;;;-3.25;100.00
54407;BME280;40313;50.308;30.374;2023-02-22T05:31:18;99233.13;;;-3.27;100.00
54407;BME280;40313;50.308;30.374;2023-02-22T05:33:46;99239.91;;;-3.27;100.00
54407;BME280;40313;50.308;30.374;2023-02-22T05:36:13;99245.88;;;-3.32;100.00
54407;BME280;40313;50.308;30.374;2023-02-22T05:38:41;99253.53;;;-3.33;100.00
54407;BME280;40313;50.308;30.374;2023-02-22T05:41:08;99257.00;;;-3.36;100.00
54407;BME280;40313;50.308;30.374;2023-02-22T05:43:36;99259.53;;;-3.39;100.00
54407;BME280;40313;50.308;30.374;2023-02-22T05:46:02;99263.78;;;-3.38;100.00
54407;BME280;40313;50.308;30.374;2023-02-22T05:48:29;99270.59;;;-3.37;100.00
54407;BME280;40313;50.308;30.374;2023-02-22T05:50:57;99270.56;;;-3.34;100.00
54407;BME280;40313;50.308;30.374;2023-02-22T05:53:24;99276.50;;;-3.33;100.00
54407;BME280;40313;50.308;30.374;2023-02-22T05:55:51;99274.78;;;-3.30;100.00
54407;BME280;40313;50.308;30.374;2023-02-22T05:58:17;99284.16;;;-3.28;100.00
54407;BME280;40313;50.308;30.374;2023-02-22T06:00:44;99289.22;;;-3.25;100.00
54407;BME280;40313;50.308;30.374;2023-02-22T06:03:11;99289.22;;;-3.22;100.00
54407;BME280;40313;50.308;30.374;2023-02-22T06:05:38;99293.41;;;-3.15;100.00
54407;BME280;40313;50.308;30.374;2023-02-22T06:08:06;99296.78;;;-3.10;100.00
54407;BME280;40313;50.308;30.374;2023-02-22T06:10:33;99303.53;;;-3.06;100.00
54407;BME280;40313;50.308;30.374;2023-02-22T06:13:01;99306.09;;;-3.03;100.00
54407;BME280;40313;50.308;30.374;2023-02-22T06:15:28;99305.22;;;-3.00;100.00
54407;BME280;40313;50.308;30.374;2023-02-22T06:17:55;99306.94;;;-3.02;100.00
54407;BME280;40313;50.308;30.374;2023-02-22T06:20:25;99314.53;;;-2.95;100.00
54407;BME280;40313;50.308;30.374;2023-02-22T06:22:53;99318.75;;;-2.90;100.00
54407;BME280;40313;50.308;30.374;2023-02-22T06:25:23;99315.34;;;-2.86;100.00
54407;BME280;40313;50.308;30.374;2023-02-22T06:27:50;99316.22;;;-2.90;100.00
54407;BME280;40313;50.308;30.374;2023-02-22T06:30:19;99321.34;;;-2.93;100.00
54407;BME280;40313;50.308;30.374;2023-02-22T06:32:45;99322.09;;;-2.81;100.00
54407;BME280;40313;50.308;30.374;2023-02-22T06:35:13;99318.63;;;-2.70;100.00
54407;BME280;40313;50.308;30.374;2023-02-22T06:37:39;99326.25;;;-2.64;100.00
54407;BME280;40313;50.308;30.374;2023-02-22T06:40:06;99336.38;;;-2.53;100.00
54407;BME280;40313;50.308;30.374;2023-02-22T06:42:36;99336.38;;;-2.53;100.00
54407;BME280;40313;50.308;30.374;2023-02-22T06:45:03;99342.31;;;-2.54;100.00
54407;BME280;40313;50.308;30.374;2023-02-22T06:47:30;99346.69;;;-2.64;100.00
54407;BME280;40313;50.308;30.374;2023-02-22T06:49:58;99354.38;;;-2.70;100.00
54407;BME280;40313;50.308;30.374;2023-02-22T06:52:25;99352.69;;;-2.70;100.00
54407;BME280;40313;50.308;30.374;2023-02-22T06:54:52;99352.72;;;-2.79;100.00
54407;BME280;40313;50.308;30.374;2023-02-22T06:57:18;99360.34;;;-2.76;100.00
54407;BME280;40313;50.308;30.374;2023-02-22T06:59:46;99362.03;;;-2.70;100.00
54407;BME280;40313;50.308;30.374;2023-02-22T07:02:13;99373.13;;;-2.73;100.00
54407;BME280;40313;50.308;30.374;2023-02-22T07:04:40;99370.69;;;-2.95;100.00
54407;BME280;40313;50.308;30.374;2023-02-22T07:07:06;99377.50;;;-2.97;100.00
54407;BME280;40313;50.308;30.374;2023-02-22T07:09:33;99375.78;;;-2.95;100.00
54407;BME280;40313;50.308;30.374;2023-02-22T07:11:59;99380.06;;;-2.95;100.00
54407;BME280;40313;50.308;30.374;2023-02-22T07:14:26;99384.25;;;-2.85;100.00
54407;BME280;40313;50.308;30.374;2023-02-22T07:16:53;99386.75;;;-2.74;100.00
54407;BME280;40313;50.308;30.374;2023-02-22T07:19:20;99385.72;;;-2.48;100.00
54407;BME280;40313;50.308;30.374;2023-02-22T07:21:47;99390.81;;;-2.47;100.00
54407;BME280;40313;50.308;30.374;2023-02-22T07:24:15;99392.41;;;-2.35;100.00
54407;BME280;40313;50.308;30.374;2023-02-22T07:26:41;99393.28;;;-2.34;100.00
54407;BME280;40313;50.308;30.374;2023-02-22T07:29:08;99394.13;;;-2.34;100.00
54407;BME280;40313;50.308;30.374;2023-02-22T07:31:36;99402.72;;;-2.44;100.00
54407;BME280;40313;50.308;30.374;2023-02-22T07:34:04;99399.38;;;-2.55;100.00
54407;BME280;40313;50.308;30.374;2023-02-22T07:36:31;99392.53;;;-2.47;100.00
54407;BME280;40313;50.308;30.374;2023-02-22T07:38:57;99400.88;;;-2.27;100.00
54407;BME280;40313;50.308;30.374;2023-02-22T07:41:24;99405.91;;;-2.17;100.00
54407;BME280;40313;50.308;30.374;2023-02-22T07:43:51;99402.53;;;-2.19;100.00
54407;BME280;40313;50.308;30.374;2023-02-22T07:46:17;99399.88;;;-2.10;100.00
54407;BME280;40313;50.308;30.374;2023-02-22T07:48:44;99400.72;;;-2.08;100.00
54407;BME280;40313;50.308;30.374;2023-02-22T07:51:13;99399.88;;;-2.07;100.00
54407;BME280;40313;50.308;30.374;2023-02-22T07:53:40;99403.28;;;-2.08;100.00
54407;BME280;40313;50.308;30.374;2023-02-22T07:56:06;99401.53;;;-2.04;100.00
54407;BME280;40313;50.308;30.374;2023-02-22T07:58:34;99400.59;;;-1.93;100.00
54407;BME280;40313;50.308;30.374;2023-02-22T08:01:01;99409.28;;;-2.12;100.00
54407;BME280;40313;50.308;30.374;2023-02-22T08:03:30;99409.97;;;-1.96;100.00
54407;BME280;40313;50.308;30.374;2023-02-22T08:05:58;99410.69;;;-1.80;100.00
54407;BME280;40313;50.308;30.374;2023-02-22T08:08:26;99410.56;;;-1.66;100.00
54407;BME280;40313;50.308;30.374;2023-02-22T08:10:52;99409.66;;;-1.62;100.00
54407;BME280;40313;50.308;30.374;2023-02-22T08:13:19;99420.81;;;-1.68;100.00
54407;BME280;40313;50.308;30.374;2023-02-22T08:15:46;99418.22;;;-1.66;100.00
54407;BME280;40313;50.308;30.374;2023-02-22T08:18:14;99420.09;;;-1.84;100.00
54407;BME280;40313;50.308;30.374;2023-02-22T08:20:42;99420.91;;;-1.80;100.00
54407;BME280;40313;50.308;30.374;2023-02-22T08:23:09;99432.81;;;-1.78;100.00
54407;BME280;40313;50.308;30.374;2023-02-22T08:25:37;99428.72;;;-1.94;100.00
54407;BME280;40313;50.308;30.374;2023-02-22T08:28:06;99437.13;;;-1.84;100.00
54407;BME280;40313;50.308;30.374;2023-02-22T08:30:32;99430.97;;;-1.62;100.00
54407;BME280;40313;50.308;30.374;2023-02-22T08:32:59;99430.13;;;-1.62;100.00
54407;BME280;40313;50.308;30.374;2023-02-22T08:35:27;99440.28;;;-1.56;100.00
54407;BME280;40313;50.308;30.374;2023-02-22T08:37:54;99438.63;;;-1.57;100.00
54407;BME280;40313;50.308;30.374;2023-02-22T08:40:21;99441.84;;;-1.41;100.00
54407;BME280;40313;50.308;30.374;2023-02-22T08:42:49;99444.56;;;-1.57;100.00
54407;BME280;40313;50.308;30.374;2023-02-22T08:45:16;99438.59;;;-1.55;100.00
54407;BME280;40313;50.308;30.374;2023-02-22T08:47:42;99440.19;;;-1.45;100.00
54407;BME280;40313;50.308;30.374;2023-02-22T08:50:13;99441.75;;;-1.32;100.00
54407;BME280;40313;50.308;30.374;2023-02-22T08:52:40;99441.75;;;-1.32;100.00
54407;BME280;40313;50.308;30.374;2023-02-22T08:55:07;99441.75;;;-1.32;100.00
54407;BME280;40313;50.308;30.374;2023-02-22T08:57:33;99444.56;;;-1.57;100.00
54407;BME280;40313;50.308;30.374;2023-02-22T09:00:01;99448.78;;;-1.52;100.00
54407;BME280;40313;50.308;30.374;2023-02-22T09:02:27;99441.97;;;-1.53;100.00
54407;BME280;40313;50.308;30.374;2023-02-22T09:04:54;99453.31;;;-1.82;100.00
54407;BME280;40313;50.308;30.374;2023-02-22T09:07:20;99449.28;;;-2.08;100.00
54407;BME280;40313;50.308;30.374;2023-02-22T09:09:47;99448.59;;;-2.29;100.00
54407;BME280;40313;50.308;30.374;2023-02-22T09:12:13;99452.94;;;-2.45;100.00
54407;BME280;40313;50.308;30.374;2023-02-22T09:14:39;99453.72;;;-2.35;100.00
54407;BME280;40313;50.308;30.374;2023-02-22T09:17:08;99460.59;;;-2.40;100.00
54407;BME280;40313;50.308;30.374;2023-02-22T09:19:34;99458.84;;;-2.35;100.00
54407;BME280;40313;50.308;30.374;2023-02-22T09:22:01;99460.47;;;-2.21;100.00
54407;BME280;40313;50.308;30.374;2023-02-22T09:24:27;99462.91;;;-2.08;100.00
54407;BME280;40313;50.308;30.374;2023-02-22T09:26:53;99461.09;;;-1.96;100.00
54407;BME280;40313;50.308;30.374;2023-02-22T09:29:20;99460.00;;;-1.69;100.00
54407;BME280;40313;50.308;30.374;2023-02-22T09:31:48;99467.50;;;-1.49;100.00
54407;BME280;40313;50.308;30.374;2023-02-22T09:34:16;99463.09;;;-1.33;100.00
54407;BME280;40313;50.308;30.374;2023-02-22T09:36:44;99468.38;;;-1.48;100.00
54407;BME280;40313;50.308;30.374;2023-02-22T09:39:11;99463.38;;;-1.64;100.00
54407;BME280;40313;50.308;30.374;2023-02-22T09:41:41;99465.94;;;-1.64;100.00
54407;BME280;40313;50.308;30.374;2023-02-22T09:44:15;99473.63;;;-1.65;100.00
54407;BME280;40313;50.308;30.374;2023-02-22T09:46:43;99467.66;;;-1.67;100.00
54407;BME280;40313;50.308;30.374;2023-02-22T09:49:17;99464.41;;;-1.83;100.00
54407;BME280;40313;50.308;30.374;2023-02-22T09:51:46;99465.97;;;-1.67;100.00
54407;BME280;40313;50.308;30.374;2023-02-22T09:54:16;99459.94;;;-1.60;100.00
54407;BME280;40313;50.308;30.374;2023-02-22T09:56:44;99464.72;;;-1.27;100.00
54407;BME280;40313;50.308;30.374;2023-02-22T09:59:13;99467.94;;;-1.08;100.00
54407;BME280;40313;50.308;30.374;2023-02-22T10:01:44;99468.06;;;-1.20;100.00
54407;BME280;40313;50.308;30.374;2023-02-22T10:04:16;99460.41;;;-1.22;100.00
54407;BME280;40313;50.308;30.374;2023-02-22T10:09:31;99462.28;;;-0.66;100.00
54407;BME280;40313;50.308;30.374;2023-02-22T10:12:02;99456.16;;;-0.56;100.00
54407;BME280;40313;50.308;30.374;2023-02-22T10:14:50;99467.88;;;-0.38;100.00
54407;BME280;40313;50.308;30.374;2023-02-22T10:17:29;99469.47;;;-0.29;100.00
54407;BME280;40313;50.308;30.374;2023-02-22T10:20:13;99467.97;;;-0.46;100.00
54407;BME280;40313;50.308;30.374;2023-02-22T10:22:49;99476.09;;;-0.78;100.00
54407;BME280;40313;50.308;30.374;2023-02-22T10:25:19;99463.56;;;-0.98;100.00
54407;BME280;40313;50.308;30.374;2023-02-22T10:27:47;99478.66;;;-0.77;100.00
54407;BME280;40313;50.308;30.374;2023-02-22T10:30:18;99468.28;;;-0.67;100.00
54407;BME280;40313;50.308;30.374;2023-02-22T10:32:46;99466.59;;;-0.70;100.00
54407;BME280;40313;50.308;30.374;2023-02-22T10:35:19;99470.53;;;-0.44;100.00
54407;BME280;40313;50.308;30.374;2023-02-22T10:37:46;99472.31;;;-0.49;100.00
54407;BME280;40313;50.308;30.374;2023-02-22T10:40:15;99467.53;;;-0.77;100.00
54407;BME280;40313;50.308;30.374;2023-02-22T10:42:42;99474.50;;;-0.85;100.00
54407;BME280;40313;50.308;30.374;2023-02-22T10:45:13;99462.50;;;-0.83;100.00
54407;BME280;40313;50.308;30.374;2023-02-22T10:47:44;99467.22;;;-0.53;100.00
54407;BME280;40313;50.308;30.374;2023-02-22T10:50:11;99470.28;;;-0.29;100.00
54407;BME280;40313;50.308;30.374;2023-02-22T10:52:40;99461.41;;;-0.06;100.00
54407;BME280;40313;50.308;30.374;2023-02-22T10:55:11;99460.28;;;0.12;100.00
54407;BME280;40313;50.308;30.374;2023-02-22T10:57:39;99466.81;;;0.28;100.00
54407;BME280;40313;50.308;30.374;2023-02-22T11:00:14;99471.91;;;0.31;100.00
54407;BME280;40313;50.308;30.374;2023-02-22T11:02:50;99468.81;;;0.12;100.00
54407;BME280;40313;50.308;30.374;2023-02-22T11:05:26;99469.25;;;-0.15;100.00
54407;BME280;40313;50.308;30.374;2023-02-22T11:08:13;99469.59;;;-0.37;100.00
54407;BME280;40313;50.308;30.374;2023-02-22T11:10:40;99478.03;;;-0.32;100.00
54407;BME280;40313;50.308;30.374;2023-02-22T11:13:15;99478.56;;;-0.10;100.00
54407;BME280;40313;50.308;30.374;2023-02-22T11:15:42;99479.03;;;0.14;100.00
54407;BME280;40313;50.308;30.374;2023-02-22T11:18:21;99474.53;;;0.28;100.00
54407;BME280;40313;50.308;30.374;2023-02-22T11:20:58;99477.66;;;0.46;100.00
54407;BME280;40313;50.308;30.374;2023-02-22T11:23:26;99480.75;;;0.65;100.00
54407;BME280;40313;50.308;30.374;2023-02-22T11:26:00;99471.97;;;0.75;100.00
54407;BME280;40313;50.308;30.374;2023-02-22T11:28:29;99477.81;;;0.83;100.00
54407;BME280;40313;50.308;30.374;2023-02-22T11:30:58;99480.03;;;0.57;100.00
54407;BME280;40313;50.308;30.374;2023-02-22T11:33:33;99487.72;;;0.57;100.00
54407;BME280;40313;50.308;30.374;2023-02-22T11:36:03;99487.00;;;0.48;100.00
54407;BME280;40313;50.308;30.374;2023-02-22T11:38:36;99491.22;;;0.52;100.00
54407;BME280;40313;50.308;30.374;2023-02-22T11:41:06;99490.31;;;0.55;100.00
54407;BME280;40313;50.308;30.374;2023-02-22T11:43:38;99501.22;;;0.16;100.00
54407;BME280;40313;50.308;30.374;2023-02-22T11:46:08;99490.25;;;0.08;100.00
54407;BME280;40313;50.308;30.374;2023-02-22T11:48:40;99492.91;;;0.02;100.00
54407;BME280;40313;50.308;30.374;2023-02-22T11:51:20;99497.31;;;-0.06;100.00
54407;BME280;40313;50.308;30.374;2023-02-22T11:54:18;99493.13;;;-0.12;100.00
54407;BME280;40313;50.308;30.374;2023-02-22T11:57:02;99488.69;;;-0.02;100.00
54407;BME280;40313;50.308;30.374;2023-02-22T11:59:35;99494.09;;;-0.19;100.00
54407;BME280;40313;50.308;30.374;2023-02-22T12:02:24;99490.56;;;-0.13;100.00
54407;BME280;40313;50.308;30.374;2023-02-22T12:05:16;99485.97;;;0.10;100.00
54407;BME280;40313;50.308;30.374;2023-02-22T12:07:54;99488.25;;;0.27;100.00
54407;BME280;40313;50.308;30.374;2023-02-22T12:10:40;99494.94;;;0.36;100.00
54407;BME280;40313;50.308;30.374;2023-02-22T12:13:22;99491.50;;;0.36;100.00
54407;BME280;40313;50.308;30.374;2023-02-22T12:15:56;99496.59;;;0.40;100.00
54407;BME280;40313;50.308;30.374;2023-02-22T12:18:33;99494.00;;;0.42;100.00
54407;BME280;40313;50.308;30.374;2023-02-22T12:21:08;99493.66;;;0.60;100.00
54407;BME280;40313;50.308;30.374;2023-02-22T12:23:43;99492.00;;;0.58;100.00
54407;BME280;40313;50.308;30.374;2023-02-22T12:26:20;99484.84;;;0.74;100.00
54407;BME280;40313;50.308;30.374;2023-02-22T12:28:53;99486.66;;;0.70;100.00
54407;BME280;40313;50.308;30.374;2023-02-22T12:31:27;99490.31;;;0.55;100.00
54407;BME280;40313;50.308;30.374;2023-02-22T12:34:03;99495.47;;;0.54;100.00
54407;BME280;40313;50.308;30.374;2023-02-22T12:36:38;99490.34;;;0.54;100.00
54407;BME280;40313;50.308;30.374;2023-02-22T12:39:25;99496.25;;;0.59;100.00
54407;BME280;40313;50.308;30.374;2023-02-22T12:41:55;99500.59;;;0.55;100.00
54407;BME280;40313;50.308;30.374;2023-02-22T12:44:25;99502.13;;;0.64;100.00
54407;BME280;40313;50.308;30.374;2023-02-22T12:46:54;99504.84;;;0.56;100.00
54407;BME280;40313;50.308;30.374;2023-02-22T12:49:22;99515.28;;;0.45;100.00
54407;BME280;40313;50.308;30.374;2023-02-22T12:51:54;99513.19;;;0.17;100.00
54407;BME280;40313;50.308;30.374;2023-02-22T12:54:27;99511.00;;;-0.07;100.00
54407;BME280;40313;50.308;30.374;2023-02-22T12:57:00;99512.63;;;0.00;100.00
54407;BME280;40313;50.308;30.374;2023-02-22T12:59:28;99514.25;;;0.04;100.00